sensor_id;sensor_type;location;lat;lon;timestamp;P1;durP1;ratioP1;P2;durP2;ratioP2
7845;SDS011;3968;51.424;6.788;2022-09-30T00:01:44;13.93;;;5.00;;
7845;SDS011;3968;51.424;6.788;2022-09-30T00:04:15;9.63;;;5.17;;
7845;SDS011;3968;51.424;6.788;2022-09-30T00:06:46;8.00;;;5.20;;
7845;SDS011;3968;51.424;6.788;2022-09-30T00:09:13;10.77;;;5.57;;
7845;SDS011;3968;51.424;6.788;2022-09-30T00:11:40;8.17;;;5.33;;
7845;SDS011;3968;51.424;6.788;2022-09-30T00:14:07;8.13;;;5.70;;
7845;SDS011;3968;51.424;6.788;2022-09-30T00:16:41;9.40;;;4.80;;
7845;SDS011;3968;51.424;6.788;2022-09-30T00:19:08;6.43;;;5.07;;
7845;SDS011;3968;51.424;6.788;2022-09-30T00:21:34;8.67;;;5.50;;
7845;SDS011;3968;51.424;6.788;2022-09-30T00:24:00;9.20;;;5.20;;
7845;SDS011;3968;51.424;6.788;2022-09-30T00:26:27;8.53;;;5.27;;
7845;SDS011;3968;51.424;6.788;2022-09-30T00:28:54;11.53;;;5.07;;
7845;SDS011;3968;51.424;6.788;2022-09-30T00:31:22;9.50;;;4.70;;
7845;SDS011;3968;51.424;6.788;2022-09-30T00:33:49;8.00;;;5.00;;
7845;SDS011;3968;51.424;6.788;2022-09-30T00:39:02;8.27;;;5.93;;
7845;SDS011;3968;51.424;6.788;2022-09-30T00:41:30;8.97;;;5.10;;
7845;SDS011;3968;51.424;6.788;2022-09-30T00:43:56;9.57;;;5.37;;
7845;SDS011;3968;51.424;6.788;2022-09-30T00:46:38;13.33;;;7.33;;
7845;SDS011;3968;51.424;6.788;2022-09-30T00:49:06;12.97;;;6.27;;
7845;SDS011;3968;51.424;6.788;2022-09-30T00:51:39;11.37;;;6.70;;
7845;SDS011;3968;51.424;6.788;2022-09-30T00:54:09;8.33;;;6.10;;
7845;SDS011;3968;51.424;6.788;2022-09-30T00:56:56;8.90;;;6.17;;
7845;SDS011;3968;51.424;6.788;2022-09-30T00:59:28;11.20;;;6.53;;
7845;SDS011;3968;51.424;6.788;2022-09-30T01:02:02;10.67;;;7.00;;
7845;SDS011;3968;51.424;6.788;2022-09-30T01:04:40;13.37;;;7.17;;
7845;SDS011;3968;51.424;6.788;2022-09-30T01:07:08;11.13;;;6.03;;
7845;SDS011;3968;51.424;6.788;2022-09-30T01:09:35;9.90;;;6.20;;
7845;SDS011;3968;51.424;6.788;2022-09-30T01:12:04;10.93;;;6.27;;
7845;SDS011;3968;51.424;6.788;2022-09-30T01:14:33;14.87;;;5.77;;
7845;SDS011;3968;51.424;6.788;2022-09-30T01:17:03;10.53;;;6.20;;
7845;SDS011;3968;51.424;6.788;2022-09-30T01:22:41;8.53;;;6.20;;
7845;SDS011;3968;51.424;6.788;2022-09-30T01:31:09;12.97;;;6.43;;
7845;SDS011;3968;51.424;6.788;2022-09-30T01:42:32;12.80;;;7.90;;
7845;SDS011;3968;51.424;6.788;2022-09-30T01:45:11;12.13;;;7.33;;
7845;SDS011;3968;51.424;6.788;2022-09-30T01:47:45;11.17;;;6.60;;
7845;SDS011;3968;51.424;6.788;2022-09-30T01:50:22;11.30;;;7.20;;
7845;SDS011;3968;51.424;6.788;2022-09-30T01:55:29;9.27;;;7.23;;
7845;SDS011;3968;51.424;6.788;2022-09-30T01:58:07;13.50;;;6.90;;
7845;SDS011;3968;51.424;6.788;2022-09-30T02:00:45;10.83;;;6.70;;
7845;SDS011;3968;51.424;6.788;2022-09-30T02:03:18;10.90;;;7.43;;
7845;SDS011;3968;51.424;6.788;2022-09-30T02:06:05;12.23;;;7.20;;
7845;SDS011;3968;51.424;6.788;2022-09-30T02:08:38;15.70;;;7.30;;
7845;SDS011;3968;51.424;6.788;2022-09-30T02:11:27;11.10;;;7.83;;
7845;SDS011;3968;51.424;6.788;2022-09-30T02:14:39;12.33;;;8.43;;
7845;SDS011;3968;51.424;6.788;2022-09-30T02:16:55;14.23;;;8.03;;
7845;SDS011;3968;51.424;6.788;2022-09-30T02:19:34;12.00;;;8.60;;
7845;SDS011;3968;51.424;6.788;2022-09-30T02:22:04;11.00;;;8.20;;
7845;SDS011;3968;51.424;6.788;2022-09-30T02:24:53;11.27;;;8.43;;
7845;SDS011;3968;51.424;6.788;2022-09-30T02:27:36;12.70;;;8.03;;
7845;SDS011;3968;51.424;6.788;2022-09-30T02:30:07;13.17;;;8.37;;
7845;SDS011;3968;51.424;6.788;2022-09-30T02:32:56;19.20;;;9.53;;
7845;SDS011;3968;51.424;6.788;2022-09-30T02:37:51;14.57;;;9.50;;
7845;SDS011;3968;51.424;6.788;2022-09-30T02:40:24;15.43;;;9.80;;
7845;SDS011;3968;51.424;6.788;2022-09-30T02:43:12;15.03;;;9.03;;
7845;SDS011;3968;51.424;6.788;2022-09-30T02:45:50;12.93;;;9.30;;
7845;SDS011;3968;51.424;6.788;2022-09-30T02:48:29;15.57;;;8.90;;
7845;SDS011;3968;51.424;6.788;2022-09-30T02:51:25;14.63;;;9.20;;
7845;SDS011;3968;51.424;6.788;2022-09-30T02:56:52;10.67;;;8.90;;
7845;SDS011;3968;51.424;6.788;2022-09-30T02:59:24;14.13;;;9.43;;
7845;SDS011;3968;51.424;6.788;2022-09-30T03:01:53;13.93;;;9.00;;
7845;SDS011;3968;51.424;6.788;2022-09-30T03:04:28;12.70;;;9.07;;
7845;SDS011;3968;51.424;6.788;2022-09-30T03:06:57;14.27;;;10.23;;
7845;SDS011;3968;51.424;6.788;2022-09-30T03:09:24;12.07;;;9.50;;
7845;SDS011;3968;51.424;6.788;2022-09-30T03:11:52;12.77;;;9.23;;
7845;SDS011;3968;51.424;6.788;2022-09-30T03:14:46;12.77;;;9.97;;
7845;SDS011;3968;51.424;6.788;2022-09-30T03:17:29;11.43;;;8.87;;
7845;SDS011;3968;51.424;6.788;2022-09-30T03:25:22;14.73;;;9.83;;
7845;SDS011;3968;51.424;6.788;2022-09-30T03:33:26;13.40;;;9.30;;
7845;SDS011;3968;51.424;6.788;2022-09-30T03:36:04;13.50;;;9.60;;
7845;SDS011;3968;51.424;6.788;2022-09-30T03:42:00;13.43;;;9.83;;
7845;SDS011;3968;51.424;6.788;2022-09-30T03:45:06;11.37;;;9.27;;
7845;SDS011;3968;51.424;6.788;2022-09-30T03:47:20;12.13;;;9.70;;
7845;SDS011;3968;51.424;6.788;2022-09-30T03:49:51;10.13;;;9.13;;
7845;SDS011;3968;51.424;6.788;2022-09-30T03:52:19;13.33;;;9.60;;
7845;SDS011;3968;51.424;6.788;2022-09-30T03:54:51;14.93;;;9.47;;
7845;SDS011;3968;51.424;6.788;2022-09-30T03:57:19;10.20;;;8.80;;
7845;SDS011;3968;51.424;6.788;2022-09-30T03:59:45;12.13;;;9.10;;
7845;SDS011;3968;51.424;6.788;2022-09-30T04:02:10;12.70;;;9.30;;
7845;SDS011;3968;51.424;6.788;2022-09-30T04:04:39;12.07;;;9.57;;
7845;SDS011;3968;51.424;6.788;2022-09-30T04:07:08;14.70;;;9.70;;
7845;SDS011;3968;51.424;6.788;2022-09-30T04:09:34;10.83;;;8.87;;
7845;SDS011;3968;51.424;6.788;2022-09-30T04:12:00;14.60;;;9.23;;
7845;SDS011;3968;51.424;6.788;2022-09-30T04:14:26;15.80;;;9.50;;
7845;SDS011;3968;51.424;6.788;2022-09-30T04:16:52;11.17;;;9.37;;
7845;SDS011;3968;51.424;6.788;2022-09-30T04:19:18;11.53;;;9.03;;
7845;SDS011;3968;51.424;6.788;2022-09-30T04:21:43;11.47;;;9.90;;
7845;SDS011;3968;51.424;6.788;2022-09-30T04:24:09;12.20;;;9.67;;
7845;SDS011;3968;51.424;6.788;2022-09-30T04:26:34;10.80;;;9.37;;
7845;SDS011;3968;51.424;6.788;2022-09-30T04:29:00;12.77;;;9.80;;
7845;SDS011;3968;51.424;6.788;2022-09-30T04:31:26;17.57;;;9.80;;
7845;SDS011;3968;51.424;6.788;2022-09-30T04:33:51;11.67;;;9.43;;
7845;SDS011;3968;51.424;6.788;2022-09-30T04:36:17;12.37;;;9.17;;
7845;SDS011;3968;51.424;6.788;2022-09-30T04:38:43;11.73;;;8.70;;
7845;SDS011;3968;51.424;6.788;2022-09-30T04:41:10;13.27;;;10.13;;
7845;SDS011;3968;51.424;6.788;2022-09-30T04:43:42;10.77;;;8.77;;
7845;SDS011;3968;51.424;6.788;2022-09-30T04:46:15;13.23;;;9.60;;
7845;SDS011;3968;51.424;6.788;2022-09-30T04:48:43;12.43;;;8.87;;
7845;SDS011;3968;51.424;6.788;2022-09-30T04:51:15;16.30;;;8.90;;
7845;SDS011;3968;51.424;6.788;2022-09-30T04:53:42;12.07;;;8.27;;
7845;SDS011;3968;51.424;6.788;2022-09-30T04:56:08;13.80;;;8.53;;
7845;SDS011;3968;51.424;6.788;2022-09-30T04:58:34;12.70;;;9.27;;
7845;SDS011;3968;51.424;6.788;2022-09-30T05:01:02;12.77;;;9.40;;
7845;SDS011;3968;51.424;6.788;2022-09-30T05:03:32;12.63;;;8.57;;
7845;SDS011;3968;51.424;6.788;2022-09-30T05:05:58;9.77;;;8.77;;
7845;SDS011;3968;51.424;6.788;2022-09-30T05:08:24;15.80;;;8.73;;
7845;SDS011;3968;51.424;6.788;2022-09-30T05:10:53;11.00;;;9.40;;
7845;SDS011;3968;51.424;6.788;2022-09-30T05:13:23;11.23;;;9.40;;
7845;SDS011;3968;51.424;6.788;2022-09-30T05:15:49;13.40;;;9.00;;
7845;SDS011;3968;51.424;6.788;2022-09-30T05:18:16;10.43;;;9.43;;
7845;SDS011;3968;51.424;6.788;2022-09-30T05:20:43;12.37;;;9.23;;
7845;SDS011;3968;51.424;6.788;2022-09-30T05:23:08;16.57;;;9.73;;
7845;SDS011;3968;51.424;6.788;2022-09-30T05:25:34;12.17;;;9.57;;
7845;SDS011;3968;51.424;6.788;2022-09-30T05:28:00;17.00;;;9.80;;
7845;SDS011;3968;51.424;6.788;2022-09-30T05:30:26;13.13;;;9.87;;
7845;SDS011;3968;51.424;6.788;2022-09-30T05:32:52;14.43;;;9.50;;
7845;SDS011;3968;51.424;6.788;2022-09-30T05:35:18;9.57;;;8.57;;
7845;SDS011;3968;51.424;6.788;2022-09-30T05:37:43;9.60;;;8.60;;
7845;SDS011;3968;51.424;6.788;2022-09-30T05:40:09;10.20;;;8.97;;
7845;SDS011;3968;51.424;6.788;2022-09-30T05:42:34;11.53;;;8.97;;
7845;SDS011;3968;51.424;6.788;2022-09-30T05:45:02;11.87;;;9.90;;
7845;SDS011;3968;51.424;6.788;2022-09-30T05:47:31;12.80;;;10.17;;
7845;SDS011;3968;51.424;6.788;2022-09-30T05:49:58;13.70;;;9.27;;
7845;SDS011;3968;51.424;6.788;2022-09-30T05:52:24;12.97;;;9.47;;
7845;SDS011;3968;51.424;6.788;2022-09-30T05:54:49;16.43;;;9.93;;
7845;SDS011;3968;51.424;6.788;2022-09-30T05:57:15;13.67;;;9.37;;
7845;SDS011;3968;51.424;6.788;2022-09-30T05:59:41;9.97;;;8.70;;
7845;SDS011;3968;51.424;6.788;2022-09-30T06:02:08;14.73;;;9.93;;
7845;SDS011;3968;51.424;6.788;2022-09-30T06:04:34;13.67;;;10.00;;
7845;SDS011;3968;51.424;6.788;2022-09-30T06:07:00;27.97;;;10.23;;
7845;SDS011;3968;51.424;6.788;2022-09-30T06:09:26;12.33;;;9.53;;
7845;SDS011;3968;51.424;6.788;2022-09-30T06:11:52;15.03;;;9.53;;
7845;SDS011;3968;51.424;6.788;2022-09-30T06:14:19;15.07;;;10.63;;
7845;SDS011;3968;51.424;6.788;2022-09-30T06:16:46;15.83;;;9.23;;
7845;SDS011;3968;51.424;6.788;2022-09-30T06:19:12;12.47;;;9.77;;
7845;SDS011;3968;51.424;6.788;2022-09-30T06:21:38;13.20;;;9.57;;
7845;SDS011;3968;51.424;6.788;2022-09-30T06:24:04;11.73;;;10.13;;
7845;SDS011;3968;51.424;6.788;2022-09-30T06:26:30;13.07;;;9.87;;
7845;SDS011;3968;51.424;6.788;2022-09-30T06:28:56;13.60;;;9.27;;
7845;SDS011;3968;51.424;6.788;2022-09-30T06:31:21;14.00;;;10.30;;
7845;SDS011;3968;51.424;6.788;2022-09-30T06:33:50;13.40;;;10.37;;
7845;SDS011;3968;51.424;6.788;2022-09-30T06:36:17;13.83;;;10.33;;
7845;SDS011;3968;51.424;6.788;2022-09-30T06:38:42;14.03;;;9.73;;
7845;SDS011;3968;51.424;6.788;2022-09-30T06:41:09;18.53;;;10.77;;
7845;SDS011;3968;51.424;6.788;2022-09-30T06:43:35;30.73;;;9.73;;
7845;SDS011;3968;51.424;6.788;2022-09-30T06:46:01;12.90;;;9.67;;
7845;SDS011;3968;51.424;6.788;2022-09-30T06:48:26;13.87;;;10.00;;
7845;SDS011;3968;51.424;6.788;2022-09-30T06:50:57;13.90;;;10.67;;
7845;SDS011;3968;51.424;6.788;2022-09-30T06:53:23;12.17;;;9.17;;
7845;SDS011;3968;51.424;6.788;2022-09-30T06:55:53;12.27;;;9.63;;
7845;SDS011;3968;51.424;6.788;2022-09-30T06:58:20;14.63;;;9.63;;
7845;SDS011;3968;51.424;6.788;2022-09-30T07:00:51;13.40;;;10.10;;
7845;SDS011;3968;51.424;6.788;2022-09-30T07:03:30;15.90;;;10.77;;
7845;SDS011;3968;51.424;6.788;2022-09-30T07:06:01;14.40;;;10.17;;
7845;SDS011;3968;51.424;6.788;2022-09-30T07:08:29;16.47;;;9.43;;
7845;SDS011;3968;51.424;6.788;2022-09-30T07:10:58;17.03;;;9.93;;
7845;SDS011;3968;51.424;6.788;2022-09-30T07:13:29;13.20;;;9.20;;
7845;SDS011;3968;51.424;6.788;2022-09-30T07:15:55;14.27;;;9.43;;
7845;SDS011;3968;51.424;6.788;2022-09-30T07:18:24;12.17;;;9.30;;
7845;SDS011;3968;51.424;6.788;2022-09-30T07:20:53;28.77;;;19.97;;
7845;SDS011;3968;51.424;6.788;2022-09-30T07:23:19;36.97;;;25.03;;
7845;SDS011;3968;51.424;6.788;2022-09-30T07:25:50;41.50;;;27.60;;
7845;SDS011;3968;51.424;6.788;2022-09-30T07:28:23;23.53;;;17.57;;
7845;SDS011;3968;51.424;6.788;2022-09-30T07:30:56;19.20;;;14.37;;
7845;SDS011;3968;51.424;6.788;2022-09-30T07:33:23;16.17;;;12.50;;
7845;SDS011;3968;51.424;6.788;2022-09-30T07:35:51;14.40;;;11.03;;
7845;SDS011;3968;51.424;6.788;2022-09-30T07:38:18;13.77;;;9.80;;
7845;SDS011;3968;51.424;6.788;2022-09-30T07:41:01;12.50;;;9.63;;
7845;SDS011;3968;51.424;6.788;2022-09-30T07:43:31;11.53;;;9.30;;
7845;SDS011;3968;51.424;6.788;2022-09-30T07:48:31;20.50;;;11.00;;
7845;SDS011;3968;51.424;6.788;2022-09-30T07:51:30;11.63;;;9.20;;
7845;SDS011;3968;51.424;6.788;2022-09-30T07:53:59;15.33;;;9.83;;
7845;SDS011;3968;51.424;6.788;2022-09-30T07:56:28;14.30;;;9.47;;
7845;SDS011;3968;51.424;6.788;2022-09-30T07:58:55;13.47;;;10.00;;
7845;SDS011;3968;51.424;6.788;2022-09-30T08:01:24;12.43;;;9.73;;
7845;SDS011;3968;51.424;6.788;2022-09-30T08:03:53;10.77;;;9.67;;
7845;SDS011;3968;51.424;6.788;2022-09-30T08:06:21;16.33;;;9.83;;
7845;SDS011;3968;51.424;6.788;2022-09-30T08:08:49;17.50;;;9.93;;
7845;SDS011;3968;51.424;6.788;2022-09-30T08:11:16;14.90;;;11.30;;
7845;SDS011;3968;51.424;6.788;2022-09-30T08:13:42;14.93;;;11.33;;
7845;SDS011;3968;51.424;6.788;2022-09-30T08:16:07;12.87;;;10.63;;
7845;SDS011;3968;51.424;6.788;2022-09-30T08:18:33;15.80;;;11.63;;
7845;SDS011;3968;51.424;6.788;2022-09-30T08:21:02;17.57;;;10.97;;
7845;SDS011;3968;51.424;6.788;2022-09-30T08:23:29;15.37;;;10.50;;
7845;SDS011;3968;51.424;6.788;2022-09-30T08:26:10;16.20;;;10.43;;
7845;SDS011;3968;51.424;6.788;2022-09-30T08:28:37;16.20;;;11.40;;
7845;SDS011;3968;51.424;6.788;2022-09-30T08:33:28;12.00;;;10.83;;
7845;SDS011;3968;51.424;6.788;2022-09-30T08:35:54;14.70;;;11.47;;
7845;SDS011;3968;51.424;6.788;2022-09-30T08:38:20;13.37;;;11.27;;
7845;SDS011;3968;51.424;6.788;2022-09-30T08:49:35;16.40;;;11.47;;
7845;SDS011;3968;51.424;6.788;2022-09-30T08:52:18;17.23;;;11.87;;
7845;SDS011;3968;51.424;6.788;2022-09-30T08:54:49;14.63;;;11.95;;
7845;SDS011;3968;51.424;6.788;2022-09-30T08:57:17;13.85;;;11.45;;
7845;SDS011;3968;51.424;6.788;2022-09-30T08:59:45;15.00;;;11.95;;
7845;SDS011;3968;51.424;6.788;2022-09-30T09:04:45;14.73;;;12.40;;
7845;SDS011;3968;51.424;6.788;2022-09-30T09:09:50;17.17;;;12.67;;
7845;SDS011;3968;51.424;6.788;2022-09-30T09:12:39;14.27;;;12.77;;
7845;SDS011;3968;51.424;6.788;2022-09-30T09:20:46;13.45;;;11.38;;
7845;SDS011;3968;51.424;6.788;2022-09-30T09:23:25;13.82;;;11.60;;
7845;SDS011;3968;51.424;6.788;2022-09-30T09:25:53;17.08;;;11.63;;
7845;SDS011;3968;51.424;6.788;2022-09-30T09:30:54;14.63;;;11.05;;
7845;SDS011;3968;51.424;6.788;2022-09-30T09:33:28;13.20;;;10.48;;
7845;SDS011;3968;51.424;6.788;2022-09-30T09:36:04;15.05;;;11.18;;
7845;SDS011;3968;51.424;6.788;2022-09-30T09:38:55;14.20;;;11.10;;
7845;SDS011;3968;51.424;6.788;2022-09-30T09:47:00;13.32;;;11.93;;
7845;SDS011;3968;51.424;6.788;2022-09-30T09:49:33;15.15;;;12.45;;
7845;SDS011;3968;51.424;6.788;2022-09-30T09:54:29;15.13;;;12.00;;
7845;SDS011;3968;51.424;6.788;2022-09-30T09:57:15;18.33;;;12.80;;
7845;SDS011;3968;51.424;6.788;2022-09-30T09:59:53;17.45;;;15.60;;
7845;SDS011;3968;51.424;6.788;2022-09-30T10:02:29;17.35;;;13.98;;
7845;SDS011;3968;51.424;6.788;2022-09-30T10:04:56;17.33;;;13.55;;
7845;SDS011;3968;51.424;6.788;2022-09-30T10:07:28;18.10;;;13.15;;
7845;SDS011;3968;51.424;6.788;2022-09-30T10:12:40;15.65;;;13.13;;
7845;SDS011;3968;51.424;6.788;2022-09-30T10:15:11;15.80;;;14.13;;
7845;SDS011;3968;51.424;6.788;2022-09-30T10:18:04;15.73;;;13.52;;
7845;SDS011;3968;51.424;6.788;2022-09-30T10:20:30;17.25;;;15.55;;
7845;SDS011;3968;51.424;6.788;2022-09-30T10:26:15;17.92;;;13.95;;
7845;SDS011;3968;51.424;6.788;2022-09-30T10:28:44;14.90;;;13.30;;
7845;SDS011;3968;51.424;6.788;2022-09-30T10:31:44;15.93;;;13.07;;
7845;SDS011;3968;51.424;6.788;2022-09-30T10:34:11;15.30;;;13.15;;
7845;SDS011;3968;51.424;6.788;2022-09-30T10:39:38;15.73;;;11.85;;
7845;SDS011;3968;51.424;6.788;2022-09-30T10:42:07;14.50;;;10.23;;
7845;SDS011;3968;51.424;6.788;2022-09-30T10:44:56;14.13;;;11.93;;
7845;SDS011;3968;51.424;6.788;2022-09-30T10:47:25;19.67;;;11.65;;
7845;SDS011;3968;51.424;6.788;2022-09-30T10:49:54;15.65;;;10.38;;
7845;SDS011;3968;51.424;6.788;2022-09-30T10:52:21;16.08;;;11.05;;
7845;SDS011;3968;51.424;6.788;2022-09-30T10:58:03;17.88;;;11.27;;
7845;SDS011;3968;51.424;6.788;2022-09-30T11:01:11;15.27;;;11.35;;
7845;SDS011;3968;51.424;6.788;2022-09-30T11:03:51;11.65;;;9.50;;
7845;SDS011;3968;51.424;6.788;2022-09-30T11:06:18;14.30;;;10.90;;
7845;SDS011;3968;51.424;6.788;2022-09-30T11:08:48;13.50;;;11.18;;
7845;SDS011;3968;51.424;6.788;2022-09-30T11:11:20;22.13;;;13.38;;
7845;SDS011;3968;51.424;6.788;2022-09-30T11:13:56;19.75;;;11.15;;
7845;SDS011;3968;51.424;6.788;2022-09-30T11:16:41;16.45;;;10.60;;
7845;SDS011;3968;51.424;6.788;2022-09-30T11:22:38;15.07;;;10.20;;
7845;SDS011;3968;51.424;6.788;2022-09-30T11:24:55;11.60;;;8.93;;
7845;SDS011;3968;51.424;6.788;2022-09-30T11:36:34;11.48;;;9.13;;
7845;SDS011;3968;51.424;6.788;2022-09-30T11:39:17;9.52;;;7.50;;
7845;SDS011;3968;51.424;6.788;2022-09-30T11:45:01;10.05;;;7.53;;
7845;SDS011;3968;51.424;6.788;2022-09-30T11:47:53;10.40;;;7.38;;
7845;SDS011;3968;51.424;6.788;2022-09-30T11:58:56;8.20;;;6.45;;
7845;SDS011;3968;51.424;6.788;2022-09-30T12:01:35;7.50;;;6.80;;
7845;SDS011;3968;51.424;6.788;2022-09-30T12:07:08;7.85;;;6.57;;
7845;SDS011;3968;51.424;6.788;2022-09-30T12:12:18;10.57;;;7.28;;
7845;SDS011;3968;51.424;6.788;2022-09-30T12:14:46;7.10;;;6.05;;
7845;SDS011;3968;51.424;6.788;2022-09-30T12:17:28;11.73;;;7.30;;
7845;SDS011;3968;51.424;6.788;2022-09-30T12:20:14;12.98;;;7.32;;
7845;SDS011;3968;51.424;6.788;2022-09-30T12:22:42;8.75;;;6.60;;
7845;SDS011;3968;51.424;6.788;2022-09-30T12:27:51;9.00;;;6.78;;
7845;SDS011;3968;51.424;6.788;2022-09-30T12:30:53;7.82;;;6.88;;
7845;SDS011;3968;51.424;6.788;2022-09-30T12:33:51;11.13;;;7.10;;
7845;SDS011;3968;51.424;6.788;2022-09-30T12:36:25;12.45;;;6.78;;
7845;SDS011;3968;51.424;6.788;2022-09-30T12:48:07;9.88;;;5.70;;
7845;SDS011;3968;51.424;6.788;2022-09-30T12:50:40;9.57;;;6.55;;
7845;SDS011;3968;51.424;6.788;2022-09-30T12:53:55;9.27;;;6.28;;
7845;SDS011;3968;51.424;6.788;2022-09-30T12:56:03;7.03;;;5.60;;
7845;SDS011;3968;51.424;6.788;2022-09-30T12:58:37;6.05;;;5.38;;
7845;SDS011;3968;51.424;6.788;2022-09-30T13:01:20;5.75;;;4.90;;
7845;SDS011;3968;51.424;6.788;2022-09-30T13:06:23;8.38;;;4.38;;
7845;SDS011;3968;51.424;6.788;2022-09-30T13:09:16;7.17;;;4.90;;
7845;SDS011;3968;51.424;6.788;2022-09-30T13:11:46;5.77;;;4.57;;
7845;SDS011;3968;51.424;6.788;2022-09-30T13:14:39;8.48;;;4.70;;
7845;SDS011;3968;51.424;6.788;2022-09-30T13:19:40;8.32;;;4.40;;
7845;SDS011;3968;51.424;6.788;2022-09-30T13:27:38;5.70;;;3.65;;
7845;SDS011;3968;51.424;6.788;2022-09-30T13:32:40;7.00;;;4.95;;
7845;SDS011;3968;51.424;6.788;2022-09-30T13:40:46;5.28;;;4.40;;
7845;SDS011;3968;51.424;6.788;2022-09-30T13:43:25;7.07;;;4.57;;
7845;SDS011;3968;51.424;6.788;2022-09-30T13:45:52;8.93;;;5.00;;
7845;SDS011;3968;51.424;6.788;2022-09-30T13:48:31;5.37;;;4.87;;
7845;SDS011;3968;51.424;6.788;2022-09-30T13:50:59;5.47;;;4.97;;
7845;SDS011;3968;51.424;6.788;2022-09-30T13:53:40;5.87;;;5.30;;
7845;SDS011;3968;51.424;6.788;2022-09-30T13:56:16;6.30;;;5.20;;
7845;SDS011;3968;51.424;6.788;2022-09-30T14:19:03;6.13;;;4.73;;
7845;SDS011;3968;51.424;6.788;2022-09-30T14:21:45;5.82;;;5.22;;
7845;SDS011;3968;51.424;6.788;2022-09-30T14:24:15;8.07;;;5.07;;
7845;SDS011;3968;51.424;6.788;2022-09-30T14:31:47;8.93;;;5.00;;
7845;SDS011;3968;51.424;6.788;2022-09-30T14:34:13;5.70;;;4.47;;
7845;SDS011;3968;51.424;6.788;2022-09-30T14:36:42;7.57;;;4.40;;
7845;SDS011;3968;51.424;6.788;2022-09-30T14:39:27;9.10;;;4.67;;
7845;SDS011;3968;51.424;6.788;2022-09-30T14:42:00;9.97;;;4.80;;
7845;SDS011;3968;51.424;6.788;2022-09-30T14:44:27;6.33;;;4.53;;
7845;SDS011;3968;51.424;6.788;2022-09-30T14:46:58;4.53;;;4.10;;
7845;SDS011;3968;51.424;6.788;2022-09-30T14:49:26;5.72;;;4.60;;
7845;SDS011;3968;51.424;6.788;2022-09-30T14:52:00;6.18;;;4.35;;
7845;SDS011;3968;51.424;6.788;2022-09-30T14:54:31;8.70;;;4.22;;
7845;SDS011;3968;51.424;6.788;2022-09-30T14:56:58;5.15;;;4.45;;
7845;SDS011;3968;51.424;6.788;2022-09-30T14:59:29;9.23;;;4.30;;
7845;SDS011;3968;51.424;6.788;2022-09-30T15:04:28;7.57;;;4.85;;
7845;SDS011;3968;51.424;6.788;2022-09-30T15:06:58;8.75;;;5.05;;
7845;SDS011;3968;51.424;6.788;2022-09-30T15:09:28;7.43;;;5.93;;
7845;SDS011;3968;51.424;6.788;2022-09-30T15:12:06;9.75;;;5.72;;
7845;SDS011;3968;51.424;6.788;2022-09-30T15:14:43;4.80;;;4.25;;
7845;SDS011;3968;51.424;6.788;2022-09-30T15:17:16;5.03;;;4.53;;
7845;SDS011;3968;51.424;6.788;2022-09-30T15:19:43;7.72;;;4.70;;
7845;SDS011;3968;51.424;6.788;2022-09-30T15:22:09;5.03;;;4.17;;
7845;SDS011;3968;51.424;6.788;2022-09-30T15:24:37;8.43;;;4.37;;
7845;SDS011;3968;51.424;6.788;2022-09-30T15:27:04;6.30;;;4.30;;
7845;SDS011;3968;51.424;6.788;2022-09-30T15:29:34;6.30;;;4.10;;
7845;SDS011;3968;51.424;6.788;2022-09-30T15:34:28;8.20;;;4.30;;
7845;SDS011;3968;51.424;6.788;2022-09-30T15:36:58;5.00;;;3.87;;
7845;SDS011;3968;51.424;6.788;2022-09-30T15:39:30;3.57;;;3.20;;
7845;SDS011;3968;51.424;6.788;2022-09-30T15:42:34;2.87;;;2.53;;
7845;SDS011;3968;51.424;6.788;2022-09-30T15:45:03;4.67;;;2.53;;
7845;SDS011;3968;51.424;6.788;2022-09-30T15:47:52;8.30;;;2.70;;
7845;SDS011;3968;51.424;6.788;2022-09-30T15:53:24;4.15;;;2.20;;
7845;SDS011;3968;51.424;6.788;2022-09-30T15:55:56;4.20;;;2.23;;
7845;SDS011;3968;51.424;6.788;2022-09-30T15:58:31;2.85;;;2.10;;
7845;SDS011;3968;51.424;6.788;2022-09-30T16:01:08;7.30;;;4.17;;
7845;SDS011;3968;51.424;6.788;2022-09-30T16:03:35;6.00;;;2.20;;
7845;SDS011;3968;51.424;6.788;2022-09-30T16:06:05;3.50;;;2.07;;
7845;SDS011;3968;51.424;6.788;2022-09-30T16:08:40;4.40;;;2.30;;
7845;SDS011;3968;51.424;6.788;2022-09-30T16:11:22;3.03;;;2.20;;
7845;SDS011;3968;51.424;6.788;2022-09-30T16:13:51;3.23;;;2.30;;
7845;SDS011;3968;51.424;6.788;2022-09-30T16:16:25;4.57;;;1.90;;
7845;SDS011;3968;51.424;6.788;2022-09-30T16:18:54;2.77;;;2.10;;
7845;SDS011;3968;51.424;6.788;2022-09-30T16:21:41;3.47;;;2.43;;
7845;SDS011;3968;51.424;6.788;2022-09-30T16:26:47;2.80;;;2.13;;
7845;SDS011;3968;51.424;6.788;2022-09-30T16:29:14;2.80;;;2.37;;
7845;SDS011;3968;51.424;6.788;2022-09-30T16:31:41;2.10;;;1.73;;
7845;SDS011;3968;51.424;6.788;2022-09-30T16:34:28;6.57;;;2.10;;
7845;SDS011;3968;51.424;6.788;2022-09-30T16:37:02;9.43;;;2.37;;
7845;SDS011;3968;51.424;6.788;2022-09-30T16:39:34;3.53;;;2.20;;
7845;SDS011;3968;51.424;6.788;2022-09-30T16:42:00;3.90;;;2.20;;
7845;SDS011;3968;51.424;6.788;2022-09-30T16:44:28;4.43;;;2.07;;
7845;SDS011;3968;51.424;6.788;2022-09-30T16:46:59;3.33;;;1.95;;
7845;SDS011;3968;51.424;6.788;2022-09-30T16:49:26;4.17;;;2.03;;
7845;SDS011;3968;51.424;6.788;2022-09-30T16:51:54;3.27;;;2.20;;
7845;SDS011;3968;51.424;6.788;2022-09-30T16:54:20;6.83;;;2.33;;
7845;SDS011;3968;51.424;6.788;2022-09-30T16:56:45;2.40;;;2.13;;
7845;SDS011;3968;51.424;6.788;2022-09-30T16:59:11;5.27;;;2.90;;
7845;SDS011;3968;51.424;6.788;2022-09-30T17:01:39;7.00;;;2.70;;
7845;SDS011;3968;51.424;6.788;2022-09-30T17:04:06;4.17;;;2.73;;
7845;SDS011;3968;51.424;6.788;2022-09-30T17:06:32;5.73;;;2.40;;
7845;SDS011;3968;51.424;6.788;2022-09-30T17:08:59;3.40;;;2.47;;
7845;SDS011;3968;51.424;6.788;2022-09-30T17:11:27;4.60;;;2.67;;
7845;SDS011;3968;51.424;6.788;2022-09-30T17:13:55;8.20;;;2.63;;
7845;SDS011;3968;51.424;6.788;2022-09-30T17:16:21;6.10;;;2.87;;
7845;SDS011;3968;51.424;6.788;2022-09-30T17:18:47;3.83;;;2.23;;
7845;SDS011;3968;51.424;6.788;2022-09-30T17:21:17;3.20;;;2.03;;
7845;SDS011;3968;51.424;6.788;2022-09-30T17:23:47;3.27;;;1.80;;
7845;SDS011;3968;51.424;6.788;2022-09-30T17:26:13;2.00;;;1.80;;
7845;SDS011;3968;51.424;6.788;2022-09-30T17:28:39;3.90;;;2.43;;
7845;SDS011;3968;51.424;6.788;2022-09-30T17:31:04;7.23;;;2.30;;
7845;SDS011;3968;51.424;6.788;2022-09-30T17:33:33;2.77;;;1.90;;
7845;SDS011;3968;51.424;6.788;2022-09-30T17:36:04;2.83;;;2.13;;
7845;SDS011;3968;51.424;6.788;2022-09-30T17:38:32;3.53;;;2.27;;
7845;SDS011;3968;51.424;6.788;2022-09-30T17:40:59;4.83;;;2.30;;
7845;SDS011;3968;51.424;6.788;2022-09-30T17:43:43;4.33;;;2.30;;
7845;SDS011;3968;51.424;6.788;2022-09-30T17:46:12;2.90;;;2.50;;
7845;SDS011;3968;51.424;6.788;2022-09-30T17:48:45;5.30;;;3.33;;
7845;SDS011;3968;51.424;6.788;2022-09-30T17:51:12;2.67;;;2.23;;
7845;SDS011;3968;51.424;6.788;2022-09-30T17:53:40;4.80;;;2.43;;
7845;SDS011;3968;51.424;6.788;2022-09-30T17:56:10;5.17;;;2.60;;
7845;SDS011;3968;51.424;6.788;2022-09-30T17:58:40;12.87;;;3.07;;
7845;SDS011;3968;51.424;6.788;2022-09-30T18:01:07;7.77;;;2.80;;
7845;SDS011;3968;51.424;6.788;2022-09-30T18:03:34;4.87;;;3.03;;
7845;SDS011;3968;51.424;6.788;2022-09-30T18:06:00;4.27;;;2.70;;
7845;SDS011;3968;51.424;6.788;2022-09-30T18:08:26;4.40;;;2.90;;
7845;SDS011;3968;51.424;6.788;2022-09-30T18:10:53;4.60;;;3.03;;
7845;SDS011;3968;51.424;6.788;2022-09-30T18:13:21;11.33;;;3.83;;
7845;SDS011;3968;51.424;6.788;2022-09-30T18:15:50;9.63;;;7.53;;
7845;SDS011;3968;51.424;6.788;2022-09-30T18:18:16;10.60;;;6.03;;
7845;SDS011;3968;51.424;6.788;2022-09-30T18:20:42;10.90;;;6.50;;
7845;SDS011;3968;51.424;6.788;2022-09-30T18:23:12;9.23;;;5.00;;
7845;SDS011;3968;51.424;6.788;2022-09-30T18:25:40;4.17;;;3.00;;
7845;SDS011;3968;51.424;6.788;2022-09-30T18:28:08;4.50;;;3.00;;
7845;SDS011;3968;51.424;6.788;2022-09-30T18:30:35;6.37;;;2.70;;
7845;SDS011;3968;51.424;6.788;2022-09-30T18:33:01;5.97;;;3.97;;
7845;SDS011;3968;51.424;6.788;2022-09-30T18:35:31;4.40;;;3.30;;